createdAt,value
2018-04-10T00:00:37.766Z,68.30
2018-04-10T00:03:06.109Z,68.40
2018-04-10T00:05:34.293Z,68.40
2018-04-10T00:08:03.312Z,67.80
2018-04-10T00:10:31.621Z,67.80
2018-04-10T00:12:59.182Z,67.80
2018-04-10T00:15:26.705Z,67.30
2018-04-10T00:17:55.033Z,66.80
2018-04-10T00:20:22.564Z,66.80
2018-04-10T00:22:50.841Z,67.70
2018-04-10T00:25:18.442Z,67.50
2018-04-10T00:27:45.987Z,66.80
2018-04-10T00:30:14.295Z,67.00
2018-04-10T00:32:41.821Z,67.00
2018-04-10T00:35:09.383Z,66.90
2018-04-10T00:37:36.984Z,66.70
2018-04-10T00:40:04.498Z,66.40
2018-04-10T00:42:33.534Z,66.10
2018-04-10T00:45:01.062Z,66.00
2018-04-10T00:47:29.347Z,67.10
2018-04-10T00:50:02.675Z,67.10
2018-04-10T00:52:30.221Z,66.50
2018-04-10T00:54:58.500Z,65.70
2018-04-10T00:57:26.039Z,65.60
2018-04-10T00:59:53.572Z,64.90
2018-04-10T01:02:21.129Z,65.40
2018-04-10T01:04:48.656Z,65.30
2018-04-10T01:07:16.185Z,64.50
2018-04-10T01:09:43.704Z,65.50
2018-04-10T01:12:12.005Z,65.00
2018-04-10T01:14:39.512Z,64.90
2018-04-10T01:17:07.040Z,64.50
2018-04-10T01:19:34.580Z,64.30
2018-04-10T01:22:02.101Z,63.30
2018-04-10T01:24:29.620Z,63.90
2018-04-10T01:26:57.157Z,63.70
2018-04-10T01:29:25.481Z,63.10
2018-04-10T01:31:52.993Z,63.00
2018-04-10T01:34:20.521Z,64.10
2018-04-10T01:36:48.029Z,63.40
2018-04-10T01:39:16.295Z,63.60
2018-04-10T01:41:43.836Z,63.60
2018-04-10T01:44:11.342Z,63.70
2018-04-10T01:46:39.622Z,64.40
2018-04-10T01:49:07.923Z,64.10
2018-04-10T01:51:35.441Z,64.00
2018-04-10T01:54:03.014Z,65.30
2018-04-10T01:56:30.611Z,64.60
2018-04-10T01:58:58.919Z,65.20
2018-04-10T02:01:26.439Z,65.20
2018-04-10T02:03:54.796Z,65.40
2018-04-10T02:06:23.821Z,65.70
2018-04-10T02:08:52.105Z,66.10
2018-04-10T02:11:20.405Z,67.30
2018-04-10T02:13:47.929Z,67.30
2018-04-10T02:16:16.236Z,69.10
2018-04-10T02:18:44.541Z,69.70
2018-04-10T02:21:12.073Z,69.60
2018-04-10T02:23:40.368Z,69.40
2018-04-10T02:26:07.910Z,69.30
2018-04-10T02:28:36.278Z,70.70
2018-04-10T02:31:03.800Z,69.90
2018-04-10T02:33:31.361Z,70.30
2018-04-10T02:35:58.891Z,70.30
2018-04-10T02:38:26.417Z,70.50
2018-04-10T02:40:53.948Z,70.20
2018-04-10T02:43:21.486Z,70.40
2018-04-10T02:45:49.769Z,70.70
2018-04-10T02:48:18.086Z,70.30
2018-04-10T02:50:45.601Z,70.20
2018-04-10T02:53:13.101Z,70.50
2018-04-10T02:55:40.825Z,70.80
2018-04-10T02:58:09.852Z,71.10
2018-04-10T03:00:38.553Z,70.60
2018-04-10T03:03:06.096Z,70.60
2018-04-10T03:05:34.381Z,71.30
2018-04-10T03:08:02.657Z,72.10
2018-04-10T03:10:30.216Z,72.00
2018-04-10T03:12:57.750Z,71.50
2018-04-10T03:15:25.273Z,72.00
2018-04-10T03:17:52.820Z,72.30
2018-04-10T03:20:21.096Z,73.20
2018-04-10T03:22:48.620Z,73.10
2018-04-10T03:25:16.174Z,73.50
2018-04-10T03:27:43.699Z,74.30
2018-04-10T03:30:11.976Z,75.10
2018-04-10T03:32:40.293Z,75.80
2018-04-10T03:35:07.978Z,75.70
2018-04-10T03:37:35.489Z,75.50
2018-04-10T03:40:03.800Z,75.00
2018-04-10T03:42:31.323Z,74.90
2018-04-10T03:44:58.833Z,75.20
2018-04-10T03:47:26.367Z,75.80
2018-04-10T03:49:54.728Z,75.20
2018-04-10T03:52:23.032Z,75.50
2018-04-10T03:54:52.333Z,75.40
2018-04-10T03:57:20.409Z,75.40
2018-04-10T03:59:48.452Z,74.90
2018-04-10T04:02:16.315Z,75.60
2018-04-10T04:04:44.557Z,75.10
2018-04-10T04:07:12.089Z,74.80
2018-04-10T04:09:40.393Z,75.30
2018-04-10T04:12:07.961Z,75.20
2018-04-10T04:14:36.245Z,74.00
2018-04-10T04:17:15.689Z,73.90
2018-04-10T04:19:55.022Z,73.90
2018-04-10T04:22:34.563Z,72.50
2018-04-10T04:25:02.097Z,72.40
2018-04-10T04:27:31.252Z,71.70
2018-04-10T04:29:58.812Z,71.70
2018-04-10T04:32:26.333Z,71.80
2018-04-10T04:34:54.637Z,71.80
2018-04-10T04:37:22.197Z,71.70
2018-04-10T04:39:49.729Z,72.40
2018-04-10T04:42:17.997Z,72.30
2018-04-10T04:44:45.561Z,72.80
2018-04-10T04:47:14.577Z,71.70
2018-04-10T04:49:42.869Z,71.20
2018-04-10T04:52:11.170Z,71.80
2018-04-10T04:54:38.745Z,71.70
2018-04-10T04:57:06.265Z,71.50
2018-04-10T04:59:33.932Z,71.50
2018-04-10T05:02:02.221Z,71.20
2018-04-10T05:04:30.516Z,70.70
2018-04-10T05:06:58.828Z,71.00
2018-04-10T05:09:26.354Z,70.90
2018-04-10T05:11:53.909Z,71.50
2018-04-10T05:14:22.212Z,71.60
2018-04-10T05:16:49.713Z,71.50
2018-04-10T05:19:17.221Z,72.70
2018-04-10T05:21:45.520Z,72.30
2018-04-10T05:24:13.035Z,72.10
2018-04-10T05:26:40.556Z,72.70
2018-04-10T05:29:08.085Z,73.80
2018-04-10T05:31:36.501Z,74.00
2018-04-10T05:34:04.013Z,75.10
2018-04-10T05:36:31.584Z,75.90
2018-04-10T05:38:59.099Z,76.80
2018-04-10T05:41:26.636Z,76.90
2018-04-10T05:43:54.960Z,77.00
2018-04-10T05:46:22.468Z,76.90
2018-04-10T05:48:50.058Z,76.70
2018-04-10T05:51:18.421Z,74.00
2018-04-10T05:53:46.712Z,74.10
2018-04-10T05:56:15.009Z,73.60
2018-04-10T05:58:42.564Z,73.50
2018-04-10T06:01:10.895Z,73.90
2018-04-10T06:03:38.424Z,73.90
2018-04-10T06:06:05.972Z,73.60
2018-04-10T06:08:34.262Z,72.20
2018-04-10T06:11:03.244Z,71.40
2018-04-10T06:13:31.572Z,71.00
2018-04-10T06:15:59.091Z,70.90
2018-04-10T06:18:27.380Z,69.00
2018-04-10T06:20:55.700Z,68.50
2018-04-10T06:23:23.225Z,68.50
2018-04-10T06:25:51.579Z,67.80
2018-04-10T06:28:20.628Z,66.70
2018-04-10T06:30:48.144Z,66.60
2018-04-10T06:33:15.669Z,66.10
2018-04-10T06:35:43.203Z,65.40
2018-04-10T06:38:11.481Z,64.60
2018-04-10T06:40:39.773Z,64.30
2018-04-10T06:43:08.093Z,62.60
2018-04-10T06:45:35.625Z,62.60
2018-04-10T06:48:03.486Z,62.10
2018-04-10T06:50:31.444Z,61.50
2018-04-10T06:52:59.996Z,59.60
2018-04-10T06:55:27.612Z,59.60
2018-04-10T06:57:55.924Z,57.40
2018-04-10T07:00:23.457Z,57.40
2018-04-10T07:02:51.553Z,57.00
2018-04-10T07:05:19.406Z,56.90
2018-04-10T07:07:47.090Z,55.00
2018-04-10T07:10:14.622Z,55.00
2018-04-10T07:12:42.955Z,52.80
2018-04-10T07:15:10.559Z,53.10
2018-04-10T07:17:38.492Z,52.80
2018-04-10T07:20:06.042Z,51.40
2018-04-10T07:22:33.576Z,50.40
2018-04-10T07:25:01.857Z,48.40
2018-04-10T07:27:30.150Z,46.80
2018-04-10T07:29:58.549Z,45.10
2018-04-10T07:32:26.085Z,45.00
2018-04-10T07:34:54.404Z,42.00
2018-04-10T07:37:21.956Z,41.90
2018-04-10T07:39:49.514Z,41.20
2018-04-10T07:42:17.838Z,38.90
2018-04-10T07:44:45.353Z,38.90
2018-04-10T07:47:13.654Z,36.70
2018-04-10T07:49:41.973Z,36.50
2018-04-10T07:52:09.489Z,36.50
2018-04-10T07:54:37.813Z,34.50
2018-04-10T07:57:05.328Z,34.40
2018-04-10T07:59:33.604Z,32.50
2018-04-10T08:02:01.881Z,32.00
2018-04-10T08:04:30.413Z,31.90
2018-04-10T08:06:57.936Z,30.70
2018-04-10T08:09:26.214Z,30.60
2018-04-10T08:11:54.522Z,28.20
2018-04-10T08:14:22.028Z,27.90
2018-04-10T08:16:49.994Z,28.40
2018-04-10T08:19:17.545Z,28.60
2018-04-10T08:21:45.053Z,28.60
2018-04-10T08:24:12.571Z,27.50
2018-04-10T08:26:40.108Z,28.90
2018-04-10T08:29:07.673Z,28.70
2018-04-10T08:31:35.201Z,28.20
2018-04-10T08:34:03.501Z,27.50
2018-04-10T08:36:31.820Z,27.70
2018-04-10T08:38:59.341Z,27.60
2018-04-10T08:41:26.896Z,28.40
2018-04-10T08:43:54.409Z,28.40
2018-04-10T08:46:21.924Z,29.10
2018-04-10T08:48:50.231Z,27.10
2018-04-10T08:51:18.502Z,28.40
2018-04-10T08:53:46.812Z,27.20
2018-04-10T08:56:14.337Z,27.10
2018-04-10T08:58:42.614Z,27.40
2018-04-10T09:01:10.135Z,27.10
2018-04-10T09:03:37.668Z,27.50
2018-04-10T09:06:06.090Z,27.90
2018-04-10T09:08:33.604Z,27.90
2018-04-10T09:11:01.904Z,28.10
2018-04-10T09:13:29.489Z,28.00
2018-04-10T09:15:57.013Z,27.80
2018-04-10T09:18:25.320Z,27.40
2018-04-10T09:20:52.921Z,27.30
2018-04-10T09:23:20.441Z,26.50
2018-04-10T09:25:48.742Z,25.60
2018-04-10T09:28:16.261Z,25.50
2018-04-10T09:30:44.549Z,23.80
2018-04-10T09:33:12.846Z,24.90
2018-04-10T09:35:40.401Z,24.90
2018-04-10T09:38:08.701Z,24.10
2018-04-10T09:40:36.236Z,24.10
2018-04-10T09:43:04.560Z,22.90
2018-04-10T09:45:32.071Z,22.80
2018-04-10T09:47:59.626Z,22.40
2018-04-10T09:50:27.137Z,21.80
2018-04-10T09:52:54.656Z,21.80
2018-04-10T09:55:22.188Z,21.40
2018-04-10T09:57:49.696Z,22.00
2018-04-10T10:00:23.884Z,21.40
2018-04-10T10:02:51.408Z,21.30
2018-04-10T10:05:18.936Z,21.10
2018-04-10T10:07:46.519Z,21.20
2018-04-10T10:10:14.919Z,22.90
2018-04-10T10:12:43.207Z,23.10
2018-04-10T10:15:11.588Z,22.40
2018-04-10T10:17:39.117Z,22.40
2018-04-10T10:20:06.647Z,22.40
2018-04-10T10:22:34.176Z,21.90
2018-04-10T10:27:37.208Z,20.70
2018-04-10T10:30:04.734Z,20.60
2018-04-10T10:32:33.038Z,20.60
2018-04-10T10:35:00.585Z,20.60
2018-04-10T10:37:28.855Z,22.80
2018-04-10T10:39:56.389Z,22.70
2018-04-10T10:42:23.950Z,22.90
2018-04-10T10:44:51.489Z,21.50
2018-04-10T10:47:19.013Z,21.90
2018-04-10T10:49:47.328Z,21.10
2018-04-10T10:52:14.849Z,21.10
2018-04-10T10:54:43.868Z,20.70
2018-04-10T10:57:12.185Z,21.80
2018-04-10T10:59:39.704Z,21.80
2018-04-10T11:02:07.989Z,21.80
2018-04-10T11:04:36.302Z,21.40
2018-04-10T11:07:03.811Z,21.40
2018-04-10T11:09:32.201Z,21.00
2018-04-10T11:11:59.739Z,21.00
2018-04-10T11:14:27.274Z,20.90
2018-04-10T11:16:54.780Z,20.90
2018-04-10T11:19:22.313Z,21.50
2018-04-10T11:21:49.845Z,20.80
2018-04-10T11:24:18.117Z,20.70
2018-04-10T11:26:46.425Z,19.90
2018-04-10T11:29:13.934Z,19.90
2018-04-10T11:31:41.461Z,19.60
2018-04-10T11:34:09.023Z,20.30
2018-04-10T11:36:36.556Z,19.70
2018-04-10T11:39:04.861Z,19.90
2018-04-10T11:41:32.397Z,19.80
2018-04-10T11:44:01.466Z,21.50
2018-04-10T11:46:28.994Z,21.50
2018-04-10T11:48:56.558Z,21.60
2018-04-10T11:51:24.153Z,21.00
2018-04-10T11:53:51.671Z,20.90
2018-04-10T11:56:19.977Z,21.50
2018-04-10T11:58:47.494Z,21.40
2018-04-10T12:01:15.000Z,22.30
2018-04-10T12:03:42.532Z,22.80
2018-04-10T12:06:10.042Z,23.20
2018-04-10T12:08:37.560Z,24.50
2018-04-10T12:11:05.950Z,24.50
2018-04-10T12:13:34.227Z,24.10
2018-04-10T12:16:02.545Z,24.20
2018-04-10T12:18:30.105Z,24.20
2018-04-10T12:20:57.624Z,25.50
2018-04-10T12:23:25.151Z,26.10
2018-04-10T12:25:52.709Z,25.40
2018-04-10T12:28:20.237Z,25.80
2018-04-10T12:30:48.513Z,26.60
2018-04-10T12:33:16.820Z,27.00
2018-04-10T12:35:44.337Z,27.00
2018-04-10T12:38:13.358Z,27.30
2018-04-10T12:40:41.652Z,27.20
2018-04-10T12:43:09.992Z,27.80
2018-04-10T12:45:37.505Z,27.70
2018-04-10T12:48:05.054Z,28.30
2018-04-10T12:50:33.337Z,29.20
2018-04-10T12:53:02.065Z,30.50
2018-04-10T12:55:29.593Z,30.40
2018-04-10T12:57:57.879Z,29.90
2018-04-10T13:00:25.391Z,29.90
2018-04-10T13:02:52.920Z,30.10
2018-04-10T13:05:20.436Z,29.40
2018-04-10T13:07:48.749Z,29.70
2018-04-10T13:10:16.304Z,29.10
2018-04-10T13:12:44.875Z,28.90
2018-04-10T13:15:12.391Z,28.50
2018-04-10T13:17:39.935Z,29.00
2018-04-10T13:20:07.487Z,28.80
2018-04-10T13:22:35.769Z,29.40
2018-04-10T13:25:04.073Z,29.70
2018-04-10T13:27:31.626Z,29.70
2018-04-10T13:29:59.173Z,30.00
2018-04-10T13:32:27.536Z,28.50
2018-04-10T13:34:55.080Z,28.50
2018-04-10T13:37:22.616Z,28.10
2018-04-10T13:39:50.156Z,27.90
2018-04-10T13:42:18.473Z,29.40
2018-04-10T13:44:45.992Z,29.30
2018-04-10T13:47:14.296Z,32.50
2018-04-10T13:49:41.804Z,32.00
2018-04-10T13:52:09.342Z,34.00
2018-04-10T13:54:36.882Z,34.60
2018-04-10T13:57:04.401Z,34.80
2018-04-10T13:59:31.942Z,35.20
2018-04-10T14:01:59.494Z,35.70
2018-04-10T14:04:27.032Z,35.90
2018-04-10T14:06:54.549Z,37.20
2018-04-10T14:09:22.115Z,37.60
2018-04-10T14:11:49.634Z,37.30
2018-04-10T14:14:17.270Z,37.60
2018-04-10T14:16:44.814Z,38.00
2018-04-10T14:19:12.392Z,37.80
2018-04-10T14:21:39.953Z,37.60
2018-04-10T14:24:07.612Z,37.50
2018-04-10T14:26:35.215Z,37.80
2018-04-10T14:29:03.690Z,38.90
2018-04-10T14:31:32.088Z,38.70
2018-04-10T14:34:00.408Z,39.70
2018-04-10T14:36:27.937Z,39.60
2018-04-10T14:38:56.553Z,40.30
2018-04-10T14:41:24.085Z,40.30
2018-04-10T14:43:51.676Z,40.90
2018-04-10T14:46:19.224Z,41.70
2018-04-10T14:48:46.753Z,41.40
2018-04-10T14:51:14.373Z,41.30
2018-04-10T14:53:41.984Z,40.70
2018-04-10T14:56:09.538Z,40.80
2018-04-10T14:58:37.340Z,40.10
2018-04-10T15:01:04.929Z,40.60
2018-04-10T15:03:32.667Z,40.50
2018-04-10T15:06:00.275Z,40.70
2018-04-10T15:08:27.882Z,41.40
2018-04-10T15:10:56.193Z,42.30
2018-04-10T15:13:24.737Z,41.90
2018-04-10T15:15:53.181Z,41.90
2018-04-10T15:18:20.758Z,41.90
2018-04-10T15:20:48.449Z,42.40
2018-04-10T15:23:16.005Z,42.70
2018-04-10T15:25:43.608Z,42.90
2018-04-10T15:28:11.129Z,42.00
2018-04-10T15:30:38.927Z,42.30
2018-04-10T15:33:07.256Z,42.60
2018-04-10T15:35:34.790Z,42.60
2018-04-10T15:38:02.429Z,42.70
2018-04-10T15:40:29.990Z,43.20
2018-04-10T15:42:57.670Z,42.50
2018-04-10T15:45:25.268Z,42.60
2018-04-10T15:47:53.676Z,43.50
2018-04-10T15:50:21.205Z,43.50
2018-04-10T15:52:49.537Z,44.70
2018-04-10T15:55:17.475Z,44.70
2018-04-10T15:57:45.244Z,45.20
2018-04-10T16:00:12.930Z,46.00
2018-04-10T16:02:40.939Z,47.00
2018-04-10T16:05:09.374Z,47.90
2018-04-10T16:07:37.697Z,47.50
2018-04-10T16:10:05.271Z,47.50
2018-04-10T16:12:32.824Z,47.80
2018-04-10T16:15:00.675Z,48.20
2018-04-10T16:17:28.405Z,48.80
2018-04-10T16:19:57.691Z,49.70
2018-04-10T16:22:25.346Z,49.70
2018-04-10T16:24:53.043Z,48.30
2018-04-10T16:27:20.973Z,48.20
2018-04-10T16:29:49.166Z,48.60
2018-04-10T16:32:16.908Z,49.00
2018-04-10T16:34:44.428Z,49.10
2018-04-10T16:37:12.737Z,49.50
2018-04-10T16:39:41.029Z,49.80
2018-04-10T16:42:08.581Z,49.70
2018-04-10T16:44:36.140Z,49.50
2018-04-10T16:47:03.752Z,48.90
2018-04-10T16:49:31.302Z,48.70
2018-04-10T16:51:58.877Z,48.70
2018-04-10T16:54:26.427Z,48.90
2018-04-10T16:56:53.945Z,49.40
2018-04-10T16:59:22.276Z,50.00
2018-04-10T17:01:49.808Z,49.90
2018-04-10T17:04:17.365Z,49.60
2018-04-10T17:06:45.693Z,49.60
2018-04-10T17:09:13.217Z,49.50
2018-04-10T17:11:41.519Z,49.10
2018-04-10T17:14:09.058Z,49.10
2018-04-10T17:16:36.621Z,48.40
2018-04-10T17:19:05.061Z,48.10
2018-04-10T17:21:33.910Z,47.90
2018-04-10T17:24:01.809Z,47.50
2018-04-10T17:26:30.367Z,47.30
2018-04-10T17:28:58.049Z,47.30
2018-04-10T17:31:25.684Z,47.40
2018-04-10T17:33:53.248Z,48.20
2018-04-10T17:36:21.578Z,48.50
2018-04-10T17:38:49.179Z,48.50
2018-04-10T17:41:17.530Z,50.30
2018-04-10T17:43:45.413Z,50.30
2018-04-10T17:46:12.999Z,50.50
2018-04-10T17:48:40.572Z,50.80
2018-04-10T17:51:10.002Z,52.40
2018-04-10T17:53:38.428Z,51.90
2018-04-10T17:56:06.643Z,51.80
2018-04-10T17:58:35.785Z,52.50
2018-04-10T18:01:04.491Z,52.50
2018-04-10T18:03:32.390Z,52.40
2018-04-10T18:05:59.962Z,53.00
2018-04-10T18:08:28.516Z,52.30
2018-04-10T18:10:56.082Z,52.50
2018-04-10T18:13:23.707Z,52.30
2018-04-10T18:15:51.248Z,52.40
2018-04-10T18:18:18.960Z,51.90
2018-04-10T18:20:50.713Z,51.60
2018-04-10T18:23:20.419Z,51.10
2018-04-10T18:25:49.215Z,51.10
2018-04-10T18:28:17.554Z,51.20
2018-04-10T18:30:45.190Z,51.20
2018-04-10T18:33:15.624Z,51.10
2018-04-10T18:35:43.234Z,51.20
2018-04-10T18:38:11.140Z,50.70
2018-04-10T18:40:39.889Z,50.50
2018-04-10T18:43:07.655Z,50.40
2018-04-10T18:45:35.904Z,50.00
2018-04-10T18:48:03.440Z,49.90
2018-04-10T18:50:31.124Z,49.80
2018-04-10T18:52:58.708Z,49.60
2018-04-10T18:55:26.367Z,49.40
2018-04-10T18:57:54.216Z,49.60
2018-04-10T19:00:21.829Z,49.80
2018-04-10T19:02:49.571Z,50.10
2018-04-10T19:05:17.952Z,50.00
2018-04-10T19:07:45.508Z,50.00
2018-04-10T19:10:13.831Z,50.20
2018-04-10T19:12:41.412Z,50.20
2018-04-10T19:15:08.960Z,50.80
2018-04-10T19:17:36.533Z,50.00
2018-04-10T19:20:04.134Z,50.10
2018-04-10T19:22:32.649Z,50.40
2018-04-10T19:25:00.181Z,50.40
2018-04-10T19:27:27.735Z,50.70
2018-04-10T19:29:56.776Z,51.00
2018-04-10T19:32:24.306Z,50.90
2018-04-10T19:34:51.904Z,51.50
2018-04-10T19:37:19.425Z,51.70
2018-04-10T19:39:46.941Z,51.70
2018-04-10T19:42:14.526Z,52.10
2018-04-10T19:44:42.072Z,52.40
2018-04-10T19:47:09.686Z,51.90
2018-04-10T19:49:38.810Z,52.50
2018-04-10T19:52:07.091Z,51.40
2018-04-10T19:54:34.616Z,51.30
2018-04-10T19:57:02.154Z,51.10
2018-04-10T19:59:29.686Z,51.60
2018-04-10T20:01:58.106Z,51.40
2018-04-10T20:04:25.648Z,51.30
2018-04-10T20:06:53.210Z,50.90
2018-04-10T20:09:20.721Z,51.30
2018-04-10T20:11:48.486Z,50.90
2018-04-10T20:14:16.014Z,51.40
2018-04-10T20:16:43.525Z,51.30
2018-04-10T20:19:11.100Z,51.30
2018-04-10T20:21:39.693Z,51.60
2018-04-10T20:24:07.360Z,52.20
2018-04-10T20:26:35.791Z,52.20
2018-04-10T20:29:03.313Z,52.10
2018-04-10T20:31:30.833Z,52.40
2018-04-10T20:33:58.496Z,52.90
2018-04-10T20:36:26.047Z,52.90
2018-04-10T20:38:53.608Z,52.60
2018-04-10T20:41:21.158Z,53.70
2018-04-10T20:43:49.765Z,53.50
2018-04-10T20:46:17.371Z,53.60
2018-04-10T20:48:45.750Z,54.70
2018-04-10T20:51:13.465Z,55.00
2018-04-10T20:53:41.837Z,55.80
2018-04-10T20:56:10.164Z,57.00
2018-04-10T20:58:37.758Z,56.90
2018-04-10T21:01:05.454Z,57.30
2018-04-10T21:03:33.816Z,58.10
2018-04-10T21:06:02.253Z,57.90
2018-04-10T21:08:29.802Z,58.00
2018-04-10T21:10:58.323Z,57.90
2018-04-10T21:13:26.000Z,57.80
2018-04-10T21:15:53.581Z,57.40
2018-04-10T21:18:21.149Z,57.30
2018-04-10T21:20:49.487Z,57.30
2018-04-10T21:23:17.061Z,57.30
2018-04-10T21:25:44.723Z,57.10
2018-04-10T21:28:12.261Z,57.10
2018-04-10T21:30:39.829Z,56.90
2018-04-10T21:33:08.165Z,57.40
2018-04-10T21:35:35.786Z,57.30
2018-04-10T21:38:03.322Z,57.70
2018-04-10T21:40:31.656Z,57.90
2018-04-10T21:43:04.853Z,57.90
2018-04-10T21:45:32.417Z,58.30
2018-04-10T21:47:59.944Z,58.40
2018-04-10T21:50:28.256Z,58.70
2018-04-10T21:52:55.853Z,58.80
2018-04-10T21:55:23.362Z,58.60
2018-04-10T21:57:50.913Z,59.10
2018-04-10T22:00:18.509Z,59.90
2018-04-10T22:02:46.072Z,60.80
2018-04-10T22:05:13.713Z,61.30
2018-04-10T22:07:41.376Z,61.80
2018-04-10T22:10:10.198Z,61.50
2018-04-10T22:12:37.735Z,61.50
2018-04-10T22:15:05.287Z,61.80
2018-04-10T22:17:33.599Z,62.20
2018-04-10T22:20:01.117Z,61.90
2018-04-10T22:22:29.533Z,62.50
2018-04-10T22:24:58.748Z,62.40
2018-04-10T22:27:24.757Z,62.60
2018-04-10T22:29:53.068Z,63.10
2018-04-10T22:32:20.597Z,63.00
2018-04-10T22:34:48.826Z,63.80
2018-04-10T22:37:16.393Z,63.80
2018-04-10T22:39:45.442Z,64.30
2018-04-10T22:42:13.005Z,64.30
2018-04-10T22:44:40.569Z,64.90
2018-04-10T22:47:08.170Z,65.50
2018-04-10T22:49:35.704Z,65.70
2018-04-10T22:52:03.297Z,66.40
2018-04-10T22:54:30.883Z,66.70
2018-04-10T22:56:58.509Z,66.50
2018-04-10T22:59:26.058Z,66.10
2018-04-10T23:01:53.578Z,66.10
2018-04-10T23:04:21.853Z,66.50
2018-04-10T23:06:49.447Z,66.40
2018-04-10T23:09:17.773Z,66.60
2018-04-10T23:11:45.314Z,66.50
2018-04-10T23:14:13.641Z,66.30
2018-04-10T23:16:41.214Z,66.30
2018-04-10T23:19:08.806Z,66.40
2018-04-10T23:21:36.394Z,66.50
2018-04-10T23:24:04.693Z,66.50
2018-04-10T23:26:33.024Z,66.80
2018-04-10T23:29:00.646Z,66.70
2018-04-10T23:31:28.192Z,67.00
2018-04-10T23:33:56.543Z,66.30
2018-04-10T23:36:24.178Z,66.30
2018-04-10T23:38:51.731Z,66.60
2018-04-10T23:41:20.008Z,67.30
2018-04-10T23:43:47.550Z,67.30
2018-04-10T23:46:15.141Z,67.70
2018-04-10T23:48:43.425Z,68.90
2018-04-10T23:51:11.746Z,68.50
2018-04-10T23:53:39.261Z,68.40
2018-04-10T23:56:07.533Z,69.80
2018-04-10T23:58:35.859Z,70.00
